Time;durP1;ratioP1;P1;durP2;ratioP2;P2;SDS_P1;SDS_P2;PMS_P1;PMS_P2;Temp;Humidity;BMP_temperature;BMP_pressure;BME280_temperature;BME280_humidity;BME280_pressure;Samples;Min_cycle;Max_cycle;Signal;HPM_P1;HPM_P2
2021/08/30 00:00:30;;;;;;;;;;;;;;;14.67;59.98;99173.16;4450679;32;20091;-88
2021/08/30 00:02:55;;;;;;;;;;;;;;;14.71;59.99;99172.88;4450092;32;20257;-89
2021/08/30 00:05:20;;;;;;;;;;;;;;;14.72;59.99;99168.47;4435729;32;20390;-88
2021/08/30 00:07:45;;;;;;;;;;;;;;;14.77;59.98;99178.69;4448832;32;20043;-89
2021/08/30 00:10:11;;;;;;;;;;;;;;;14.68;59.99;99177.47;4435976;32;19998;-88
2021/08/30 00:12:40;;;;;;;;;;;;;;;14.72;59.99;99178.97;4435836;32;20254;-88
2021/08/30 00:15:05;;;;;;;;;;;;;;;14.73;59.99;99175.41;4435787;32;20015;-90
2021/08/30 00:17:31;;;;;;;;;;;;;;;14.84;59.99;99180.84;4448570;32;19997;-90
2021/08/30 00:19:56;;;;;;;;;;;;;;;14.73;59.99;99188.50;4435701;32;19997;-89
2021/08/30 00:22:21;;;;;;;;;;;;;;;14.67;59.98;99187.09;4435504;32;20025;-89
2021/08/30 00:24:46;;;;;;;;;;;;;;;14.76;59.98;99193.56;4436284;32;20314;-89
2021/08/30 00:27:12;;;;;;;;;;;;;;;14.81;59.99;99186.28;4437612;32;20024;-88
2021/08/30 00:29:37;;;;;;;;;;;;;;;14.91;59.99;99184.81;4437353;32;21670;-89
2021/08/30 00:32:02;;;;;;;;;;;;;;;14.99;60.00;99182.56;4437618;32;19997;-89
2021/08/30 00:34:27;;;;;;;;;;;;;;;15.01;59.99;99193.81;4450569;32;19981;-89
2021/08/30 00:36:53;;;;;;;;;;;;;;;15.00;60.00;99188.66;4439116;32;20043;-89
2021/08/30 00:39:21;;;;;;;;;;;;;;;15.11;60.01;99193.25;4439159;32;20000;-89
2021/08/30 00:41:47;;;;;;;;;;;;;;;14.97;60.00;99194.94;4450585;32;20022;-88
2021/08/30 00:44:13;;;;;;;;;;;;;;;15.04;60.00;99190.16;4437708;32;20339;-89
2021/08/30 00:46:38;;;;;;;;;;;;;;;15.20;60.01;99192.72;4437639;32;19993;-90
2021/08/30 00:49:03;;;;;;;;;;;;;;;15.09;60.00;99193.34;4437517;32;19989;-89
2021/08/30 00:51:28;;;;;;;;;;;;;;;15.05;60.00;99200.56;4450643;32;20008;-89
2021/08/30 00:53:57;;;;;;;;;;;;;;;15.04;60.00;99196.25;4437552;32;20026;-88
2021/08/30 00:56:22;;;;;;;;;;;;;;;15.01;59.99;99191.19;4437321;32;20346;-89
2021/08/30 00:58:47;;;;;;;;;;;;;;;15.08;60.00;99190.81;4437550;32;20009;-89
2021/08/30 01:01:12;;;;;;;;;;;;;;;15.06;60.00;99193.53;4450377;32;20353;-88
2021/08/30 01:03:37;;;;;;;;;;;;;;;15.07;60.00;99199.63;4436831;32;27690;-89
2021/08/30 01:06:03;;;;;;;;;;;;;;;15.14;60.00;99195.69;4437542;32;20035;-89
2021/08/30 01:08:29;;;;;;;;;;;;;;;15.14;60.00;99200.94;4437572;32;19993;-89
2021/08/30 01:10:56;;;;;;;;;;;;;;;15.24;60.01;99195.06;4450536;32;19971;-89
2021/08/30 01:13:24;;;;;;;;;;;;;;;15.34;60.02;99192.72;4450429;32;20298;-89
2021/08/30 01:15:49;;;;;;;;;;;;;;;15.16;60.02;99194.69;4450347;32;20088;-89
2021/08/30 01:18:24;;;;;;;;;;;;;;;15.29;60.01;99192.16;4437489;32;20060;-89
2021/08/30 01:21:01;;;;;;;;;;;;;;;15.08;60.00;99198.69;4438830;32;19996;-88
2021/08/30 01:23:27;;;;;;;;;;;;;;;15.04;60.00;99196.25;4450111;32;20064;-89
2021/08/30 01:25:52;;;;;;;;;;;;;;;15.03;60.00;99202.44;4437441;32;20294;-89
2021/08/30 01:28:19;;;;;;;;;;;;;;;15.04;60.00;99198.88;4437604;32;20042;-90
2021/08/30 01:30:44;;;;;;;;;;;;;;;14.97;60.00;99196.72;4437596;32;20318;-89
2021/08/30 01:33:10;;;;;;;;;;;;;;;14.99;59.99;99197.47;4437308;32;20029;-89
2021/08/30 01:35:35;;;;;;;;;;;;;;;14.93;59.99;99210.94;4450256;32;20038;-90
2021/08/30 01:38:02;;;;;;;;;;;;;;;15.12;60.01;99200.19;4437238;32;20007;-90
2021/08/30 01:40:28;;;;;;;;;;;;;;;15.12;60.01;99200.19;4450387;32;20044;-90
2021/08/30 01:42:53;;;;;;;;;;;;;;;15.04;60.01;99198.03;4394206;32;19986;-88
2021/08/30 01:45:20;;;;;;;;;;;;;;;15.04;60.00;99198.88;4407702;32;19997;-88
2021/08/30 01:47:45;;;;;;;;;;;;;;;15.16;60.00;99202.56;4394029;32;20491;-88
2021/08/30 01:50:11;;;;;;;;;;;;;;;15.17;60.00;99199.00;4406463;32;19974;-88
2021/08/30 01:52:38;;;;;;;;;;;;;;;15.07;60.00;99195.22;4396591;32;19990;-92
2021/08/30 01:55:12;;;;;;;;;;;;;;;14.95;60.00;99190.72;4405723;32;19970;-93
2021/08/30 02:00:42;;;;;;;;;;;;;;;15.12;60.01;99197.56;4396272;32;19997;-91
2021/08/30 02:03:14;;;;;;;;;;;;;;;15.14;60.00;99190.44;4407493;32;19950;-91
2021/08/30 02:05:39;;;;;;;;;;;;;;;15.07;60.00;99181.28;4394860;32;20385;-91
2021/08/30 02:08:04;;;;;;;;;;;;;;;14.95;60.00;99188.09;4394868;32;20029;-92
2021/08/30 02:10:30;;;;;;;;;;;;;;;14.95;60.00;99178.47;4395061;32;20005;-92
2021/08/30 02:12:55;;;;;;;;;;;;;;;14.79;59.98;99184.69;4395033;32;19985;-93
2021/08/30 02:15:20;;;;;;;;;;;;;;;14.67;59.98;99188.88;4407486;32;20030;-91
2021/08/30 02:17:47;;;;;;;;;;;;;;;14.79;59.98;99187.28;4394855;32;20055;-91
2021/08/30 02:20:12;;;;;;;;;;;;;;;14.86;59.99;99184.22;4394823;32;19992;-92
2021/08/30 02:22:39;;;;;;;;;;;;;;;14.79;59.98;99184.69;4394562;32;19998;-91
2021/08/30 02:25:05;;;;;;;;;;;;;;;14.64;59.98;99183.78;4407182;32;19982;-91
2021/08/30 02:27:32;;;;;;;;;;;;;;;14.69;59.98;99184.38;4394390;32;20315;-90
2021/08/30 02:29:58;;;;;;;;;;;;;;;14.72;59.99;99179.81;4394407;32;20022;-92
2021/08/30 02:32:23;;;;;;;;;;;;;;;14.76;59.98;99177.00;4406890;32;19985;-92
2021/08/30 02:34:49;;;;;;;;;;;;;;;14.63;59.97;99174.22;4394422;32;20972;-92
2021/08/30 02:37:14;;;;;;;;;;;;;;;14.57;59.98;99185.06;4395248;32;20001;-91
2021/08/30 02:39:39;;;;;;;;;;;;;;;14.76;59.98;99179.63;4394382;32;20027;-92
2021/08/30 02:42:05;;;;;;;;;;;;;;;14.64;59.98;99179.38;4415379;32;20020;-92
2021/08/30 02:44:30;;;;;;;;;;;;;;;14.75;59.98;99178.78;4438266;32;20035;-91
2021/08/30 02:46:56;;;;;;;;;;;;;;;14.58;59.98;99179.75;4437779;32;19995;-92
2021/08/30 02:49:21;;;;;;;;;;;;;;;14.63;59.97;99182.09;4436419;32;19973;-91
2021/08/30 02:51:46;;;;;;;;;;;;;;;14.60;59.98;99184.87;4450442;32;20033;-91
2021/08/30 02:54:11;;;;;;;;;;;;;;;14.50;59.97;99181.12;4450331;32;19985;-90
2021/08/30 02:56:37;;;;;;;;;;;;;;;14.51;59.97;99183.66;4450827;32;19992;-91
2021/08/30 02:59:02;;;;;;;;;;;;;;;14.61;59.97;99181.34;4437360;32;19986;-91
2021/08/30 03:01:27;;;;;;;;;;;;;;;14.63;59.97;99182.09;4437678;32;20019;-91
2021/08/30 03:03:53;;;;;;;;;;;;;;;14.59;59.97;99183.19;4437793;32;20053;-91
2021/08/30 03:06:18;;;;;;;;;;;;;;;14.59;59.98;99170.94;4437587;32;19994;-91
2021/08/30 03:08:43;;;;;;;;;;;;;;;14.64;59.98;99181.16;4437532;32;20039;-91
2021/08/30 03:11:09;;;;;;;;;;;;;;;14.58;59.98;99176.28;4437269;32;19981;-92
2021/08/30 03:13:35;;;;;;;;;;;;;;;14.70;59.98;99180.81;4437949;32;20308;-92
2021/08/30 03:16:00;;;;;;;;;;;;;;;14.69;59.98;99182.59;4437508;32;19994;-90
2021/08/30 03:18:25;;;;;;;;;;;;;;;14.87;60.00;99177.19;4437940;32;20010;-93
2021/08/30 03:20:51;;;;;;;;;;;;;;;14.76;59.98;99182.25;4438286;32;19989;-92
2021/08/30 03:23:16;;;;;;;;;;;;;;;14.84;59.99;99180.84;4437302;32;20327;-90
2021/08/30 03:25:42;;;;;;;;;;;;;;;14.83;59.99;99180.94;4437264;32;20005;-92
2021/08/30 03:28:07;;;;;;;;;;;;;;;14.81;59.99;99178.41;4437143;32;20326;-91
2021/08/30 03:30:32;;;;;;;;;;;;;;;14.88;59.99;99169.25;4437290;32;20007;-90
2021/08/30 03:32:58;;;;;;;;;;;;;;;14.85;59.99;99164.19;4436421;32;20420;-89
2021/08/30 03:35:23;;;;;;;;;;;;;;;14.86;59.99;99165.03;4437029;32;20326;-90
2021/08/30 03:37:48;;;;;;;;;;;;;;;14.71;59.98;99169.41;4450321;32;19973;-92
2021/08/30 03:40:14;;;;;;;;;;;;;;;14.71;59.99;99167.63;4450056;32;19996;-88
2021/08/30 03:42:39;;;;;;;;;;;;;;;14.71;59.98;99172.03;4449105;32;19974;-88
2021/08/30 03:45:05;;;;;;;;;;;;;;;14.56;59.98;99171.13;4449375;32;20014;-89
2021/08/30 03:47:30;;;;;;;;;;;;;;;14.55;59.97;99168.59;4449086;32;19981;-91
2021/08/30 03:49:58;;;;;;;;;;;;;;;14.56;59.96;99172.91;4436591;32;20020;-91
2021/08/30 03:52:24;;;;;;;;;;;;;;;14.56;59.98;99183.38;4436820;32;19994;-91
2021/08/30 03:54:49;;;;;;;;;;;;;;;14.54;59.97;99178.22;4449440;32;19989;-91
2021/08/30 03:57:14;;;;;;;;;;;;;;;14.63;59.97;99184.72;4449431;32;20009;-90
2021/08/30 03:59:40;;;;;;;;;;;;;;;14.66;59.98;99193.22;4449831;32;19969;-89
2021/08/30 04:02:05;;;;;;;;;;;;;;;14.61;59.98;99194.44;4450791;32;22993;-90
2021/08/30 04:04:31;;;;;;;;;;;;;;;14.51;59.97;99195.91;4451238;32;20288;-90
2021/08/30 04:06:56;;;;;;;;;;;;;;;14.55;59.97;99197.41;4438447;32;19986;-90
2021/08/30 04:09:22;;;;;;;;;;;;;;;14.52;59.97;99205.44;4438145;32;20287;-90
2021/08/30 04:11:48;;;;;;;;;;;;;;;14.34;59.97;99205.50;4438174;32;20023;-90
2021/08/30 04:14:13;;;;;;;;;;;;;;;14.39;59.96;99203.47;4450907;32;20033;-89
2021/08/30 04:16:39;;;;;;;;;;;;;;;14.45;59.97;99214.59;4437799;32;20240;-91
2021/08/30 04:19:04;;;;;;;;;;;;;;;14.36;59.96;99215.91;4451022;32;19973;-92
2021/08/30 04:21:29;;;;;;;;;;;;;;;14.51;59.97;99217.69;4451730;32;19981;-94
2021/08/30 04:23:54;;;;;;;;;;;;;;;14.65;59.98;99222.13;4439222;32;20052;-93
2021/08/30 04:26:20;;;;;;;;;;;;;;;14.61;59.97;99229.31;4451763;32;19973;-93
2021/08/30 04:28:45;;;;;;;;;;;;;;;14.61;59.98;99221.47;4439102;32;20031;-92
2021/08/30 04:31:10;;;;;;;;;;;;;;;14.70;59.98;99234.06;4438001;32;20005;-91
2021/08/30 04:33:36;;;;;;;;;;;;;;;14.82;59.99;99235.12;4450736;32;19981;-91
2021/08/30 04:36:01;;;;;;;;;;;;;;;14.84;59.99;99230.63;4437918;32;19981;-90
2021/08/30 04:38:26;;;;;;;;;;;;;;;15.01;59.99;99222.66;4437599;32;20016;-91
2021/08/30 04:40:51;;;;;;;;;;;;;;;14.99;60.00;99227.12;4437707;32;20001;-91
2021/08/30 04:43:16;;;;;;;;;;;;;;;15.06;60.00;99225.00;4437879;32;20333;-91
2021/08/30 04:45:42;;;;;;;;;;;;;;;15.12;60.00;99229.88;4437403;32;19985;-89
2021/08/30 04:48:07;;;;;;;;;;;;;;;15.20;60.01;99221.56;4437441;32;20017;-90
2021/08/30 04:50:32;;;;;;;;;;;;;;;15.20;60.01;99219.78;4437666;32;20001;-89
2021/08/30 04:52:57;;;;;;;;;;;;;;;15.28;60.01;99228.03;4437327;32;20339;-90
2021/08/30 04:55:23;;;;;;;;;;;;;;;15.17;60.00;99229.63;4450620;32;20280;-89
2021/08/30 04:57:48;;;;;;;;;;;;;;;15.19;60.01;99227.75;4437427;32;19989;-89
2021/08/30 05:00:13;;;;;;;;;;;;;;;15.11;60.01;99240.44;4450342;32;20005;-89
2021/08/30 05:02:39;;;;;;;;;;;;;;;15.07;60.00;99236.31;4437630;32;20006;-88
2021/08/30 05:05:04;;;;;;;;;;;;;;;15.08;60.00;99243.25;4450529;32;20335;-90
2021/08/30 05:07:29;;;;;;;;;;;;;;;15.17;60.00;99242.72;4437603;32;20011;-89
2021/08/30 05:09:55;;;;;;;;;;;;;;;15.15;60.00;99239.34;4437640;32;20037;-90
2021/08/30 05:12:25;;;;;;;;;;;;;;;15.08;60.00;99244.09;4436637;32;20008;-89
2021/08/30 05:14:50;;;;;;;;;;;;;;;15.36;60.02;99238.06;4437722;32;19982;-90
2021/08/30 05:17:15;;;;;;;;;;;;;;;15.20;60.00;99234.69;4437412;32;19984;-89
2021/08/30 05:19:40;;;;;;;;;;;;;;;15.10;60.00;99234.34;4437468;32;20047;-89
2021/08/30 05:22:06;;;;;;;;;;;;;;;15.19;60.01;99231.22;4450477;32;20037;-90
2021/08/30 05:24:31;;;;;;;;;;;;;;;15.18;60.01;99239.16;4437369;32;19978;-89
2021/08/30 05:26:56;;;;;;;;;;;;;;;15.41;60.02;99238.66;4436644;32;26536;-89
2021/08/30 05:29:21;;;;;;;;;;;;;;;15.50;60.02;99232.00;4437303;32;20258;-90
2021/08/30 05:31:46;;;;;;;;;;;;;;;15.39;60.01;99234.44;4450259;32;20031;-89
2021/08/30 05:34:12;;;;;;;;;;;;;;;15.44;60.02;99229.75;4437187;32;19985;-90
2021/08/30 05:36:37;;;;;;;;;;;;;;;15.34;60.02;99232.06;4437606;32;19989;-88
2021/08/30 05:39:03;;;;;;;;;;;;;;;15.26;60.01;99234.31;4453919;32;19997;-88
2021/08/30 05:41:28;;;;;;;;;;;;;;;15.11;60.00;99229.97;4449961;32;19998;-88
2021/08/30 05:43:54;;;;;;;;;;;;;;;15.37;60.02;99224.00;4438656;32;20279;-88
2021/08/30 05:46:19;;;;;;;;;;;;;;;15.14;60.00;99235.88;4450041;32;20277;-89
2021/08/30 05:48:48;;;;;;;;;;;;;;;15.37;60.02;99231.87;4449722;32;20025;-88
2021/08/30 05:51:13;;;;;;;;;;;;;;;15.63;60.04;99228.59;4437294;32;19993;-88
2021/08/30 05:53:38;;;;;;;;;;;;;;;15.74;60.04;99234.94;4450243;32;20043;-88
2021/08/30 05:56:04;;;;;;;;;;;;;;;15.71;60.04;99233.34;4450203;32;19969;-89
2021/08/30 05:58:29;;;;;;;;;;;;;;;15.59;60.03;99234.94;4437196;32;20735;-88
2021/08/30 06:00:54;;;;;;;;;;;;;;;15.65;60.03;99239.81;4437356;32;20008;-89
2021/08/30 06:03:19;;;;;;;;;;;;;;;15.60;60.03;99231.37;4449987;32;19973;-88
2021/08/30 06:05:45;;;;;;;;;;;;;;;15.72;60.04;99236.81;4450093;32;20031;-87
2021/08/30 06:08:10;;;;;;;;;;;;;;;15.62;60.03;99239.16;4449784;32;20045;-88
2021/08/30 06:10:35;;;;;;;;;;;;;;;15.58;60.03;99242.84;4449974;32;20047;-89
2021/08/30 06:13:00;;;;;;;;;;;;;;;15.69;60.03;99247.50;4449774;32;19977;-89
2021/08/30 06:15:26;;;;;;;;;;;;;;;15.58;60.02;99255.97;4449428;32;20003;-89
2021/08/30 06:17:51;;;;;;;;;;;;;;;15.63;60.04;99252.19;4449913;32;20365;-88
2021/08/30 06:20:16;;;;;;;;;;;;;;;15.77;60.03;99253.13;4449912;32;20027;-88
2021/08/30 06:22:42;;;;;;;;;;;;;;;15.80;60.04;99247.69;4449786;32;19993;-88
2021/08/30 06:25:07;;;;;;;;;;;;;;;15.90;60.04;99236.53;4449919;32;20014;-89
2021/08/30 06:27:32;;;;;;;;;;;;;;;16.06;60.05;99246.06;4449962;32;20013;-88
2021/08/30 06:29:58;;;;;;;;;;;;;;;16.16;60.05;99249.81;4449680;32;20014;-88
2021/08/30 06:32:23;;;;;;;;;;;;;;;16.27;60.07;99244.72;4436579;32;20025;-89
2021/08/30 06:34:48;;;;;;;;;;;;;;;16.37;60.07;99240.59;4438271;32;20338;-88
2021/08/30 06:37:14;;;;;;;;;;;;;;;16.56;60.08;99243.72;4449676;32;19981;-88
2021/08/30 06:39:39;;;;;;;;;;;;;;;16.48;60.08;99242.50;4436980;32;20004;-88
2021/08/30 06:42:04;;;;;;;;;;;;;;;16.58;60.08;99244.47;4449701;32;19979;-88
2021/08/30 06:44:30;;;;;;;;;;;;;;;16.53;60.08;99246.53;4449761;32;20053;-89
2021/08/30 06:46:55;;;;;;;;;;;;;;;16.46;60.07;99242.59;4449798;32;20029;-88
2021/08/30 06:49:20;;;;;;;;;;;;;;;16.53;60.08;99243.06;4449857;32;20004;-88
2021/08/30 06:51:45;;;;;;;;;;;;;;;16.44;60.07;99243.66;4449931;32;20313;-89
2021/08/30 06:54:11;;;;;;;;;;;;;;;16.70;60.09;99240.22;4449590;32;20060;-89
2021/08/30 06:56:37;;;;;;;;;;;;;;;16.79;60.09;99244.00;4449670;32;19986;-89
2021/08/30 06:59:02;;;;;;;;;;;;;;;16.82;60.09;99241.22;4438147;32;20046;-89
2021/08/30 07:01:28;;;;;;;;;;;;;;;16.83;60.09;99242.91;4436460;32;20329;-89
2021/08/30 07:03:53;;;;;;;;;;;;;;;16.92;60.09;99239.66;4449605;32;19961;-88
2021/08/30 07:06:18;;;;;;;;;;;;;;;16.93;60.09;99237.88;4449288;32;20016;-86
2021/08/30 07:08:44;;;;;;;;;;;;;;;17.03;60.11;99244.19;4436352;32;19989;-89
2021/08/30 07:11:09;;;;;;;;;;;;;;;17.02;60.11;99245.13;4436641;32;20001;-88
2021/08/30 07:13:34;;;;;;;;;;;;;;;16.85;60.10;99233.97;4436405;32;19998;-88
2021/08/30 07:15:59;;;;;;;;;;;;;;;17.11;60.11;99249.78;4449391;32;19973;-89
2021/08/30 07:18:24;;;;;;;;;;;;;;;17.39;60.11;99243.50;4449639;32;20025;-90
2021/08/30 07:20:50;;;;;;;;;;;;;;;17.47;60.13;99235.94;4449471;32;20611;-89
2021/08/30 07:23:16;;;;;;;;;;;;;;;17.62;60.13;99242.78;4436351;32;20009;-89
2021/08/30 07:25:41;;;;;;;;;;;;;;;17.71;60.14;99244.81;4449580;32;19996;-90
2021/08/30 07:28:07;;;;;;;;;;;;;;;17.82;60.14;99241.44;4437925;32;20061;-89
2021/08/30 07:30:32;;;;;;;;;;;;;;;18.00;60.15;99242.78;4452331;32;19973;-89
2021/08/30 07:32:57;;;;;;;;;;;;;;;18.16;60.17;99244.31;4449212;32;20015;-88
2021/08/30 07:35:23;;;;;;;;;;;;;;;17.79;60.15;99250.41;4434441;32;20008;-88
2021/08/30 07:37:48;;;;;;;;;;;;;;;18.01;60.16;99246.25;4435514;32;19997;-87
2021/08/30 07:40:14;;;;;;;;;;;;;;;18.21;60.16;99245.66;4437032;32;19981;-87
2021/08/30 07:42:39;;;;;;;;;;;;;;;18.44;60.18;99246.66;4435261;32;19978;-88
2021/08/30 07:45:06;;;;;;;;;;;;;;;18.38;60.17;99249.75;4448237;32;19997;-88
2021/08/30 07:47:31;;;;;;;;;;;;;;;18.57;60.19;99249.25;4448279;32;19990;-89
2021/08/30 07:49:56;;;;;;;;;;;;;;;18.56;60.19;99252.84;4448234;32;20041;-88
2021/08/30 07:52:22;;;;;;;;;;;;;;;18.58;60.19;99250.94;4436668;32;19989;-88
2021/08/30 07:54:47;;;;;;;;;;;;;;;18.63;60.19;99254.94;4436935;32;20016;-87
2021/08/30 07:57:13;;;;;;;;;;;;;;;18.86;60.20;99253.25;4448820;32;19989;-87
2021/08/30 07:59:38;;;;;;;;;;;;;;;18.87;60.20;99252.31;4448814;32;19989;-87
2021/08/30 08:02:04;;;;;;;;;;;;;;;19.16;60.21;99257.19;4437295;32;19973;-87
2021/08/30 08:04:29;;;;;;;;;;;;;;;19.25;60.22;99256.53;4448693;32;20001;-88
2021/08/30 08:06:55;;;;;;;;;;;;;;;19.30;60.21;99260.50;4448937;32;20009;-89
2021/08/30 08:09:21;;;;;;;;;;;;;;;19.38;60.22;99262.53;4448460;32;20039;-89
2021/08/30 08:11:47;;;;;;;;;;;;;;;19.59;60.24;99257.44;4437183;32;20001;-88
2021/08/30 08:14:16;;;;;;;;;;;;;;;19.79;60.25;99264.69;4435769;32;20008;-89
2021/08/30 08:16:41;;;;;;;;;;;;;;;19.81;60.25;99261.91;4435918;32;20015;-88
2021/08/30 08:19:06;;;;;;;;;;;;;;;19.73;60.25;99259.03;4437299;32;19981;-89
2021/08/30 08:21:33;;;;;;;;;;;;;;;19.95;60.26;99266.12;4448666;32;20303;-88
2021/08/30 08:23:59;;;;;;;;;;;;;;;19.84;60.25;99259.88;4448029;32;19986;-90
2021/08/30 08:26:24;;;;;;;;;;;;;;;19.97;60.26;99265.06;4437022;32;20388;-89
2021/08/30 08:28:49;;;;;;;;;;;;;;;20.13;60.26;99256.78;4435267;32;20306;-89
2021/08/30 08:31:14;;;;;;;;;;;;;;;20.26;60.27;99265.38;4448507;32;20263;-88
2021/08/30 08:33:41;;;;;;;;;;;;;;;20.63;60.29;99258.03;4435434;32;19990;-88
2021/08/30 08:36:07;;;;;;;;;;;;;;;20.66;60.29;99263.06;4436950;32;19993;-89
2021/08/30 08:38:32;;;;;;;;;;;;;;;20.63;60.29;99268.59;4448055;32;20704;-88
2021/08/30 08:40:57;;;;;;;;;;;;;;;20.81;60.30;99268.87;4448233;32;19999;-90
2021/08/30 08:43:22;;;;;;;;;;;;;;;20.72;60.30;99272.31;4447942;32;20290;-90
2021/08/30 08:45:48;;;;;;;;;;;;;;;21.01;60.31;99276.03;4449243;32;20025;-90
2021/08/30 08:48:14;;;;;;;;;;;;;;;20.94;60.32;99274.88;4450363;32;19970;-88
2021/08/30 08:50:39;;;;;;;;;;;;;;;20.99;60.31;99282.44;4450169;32;20024;-89
2021/08/30 08:53:05;;;;;;;;;;;;;;;21.24;60.32;99283.91;4438978;32;19992;-90
2021/08/30 08:55:34;;;;;;;;;;;;;;;21.56;60.34;99284.72;4450245;32;20288;-87
2021/08/30 08:58:18;;;;;;;;;;;;;;;21.82;60.36;99279.00;4438833;32;19969;-90
2021/08/30 09:00:44;;;;;;;;;;;;;;;22.01;60.36;99277.28;4437742;32;20080;-89
2021/08/30 09:03:20;;;;;;;;;;;;;;;21.82;60.35;99284.28;4437636;32;19986;-90
2021/08/30 09:05:45;;;;;;;;;;;;;;;21.82;60.35;99284.28;4450563;32;20007;-90
2021/08/30 09:08:30;;;;;;;;;;;;;;;21.87;60.35;99288.22;4437570;32;19990;-91
2021/08/30 09:10:55;;;;;;;;;;;;;;;21.79;60.34;99287.22;4450611;32;19996;-89
2021/08/30 09:13:25;;;;;;;;;;;;;;;22.02;60.36;99283.41;4438766;32;19992;-90
2021/08/30 09:15:50;;;;;;;;;;;;;;;22.29;60.38;99288.16;4450685;32;20106;-89
2021/08/30 09:18:15;;;;;;;;;;;;;;;22.31;60.38;99281.75;4450751;32;20030;-90
2021/08/30 09:20:40;;;;;;;;;;;;;;;22.31;60.37;99280.91;4443688;32;19978;-91
2021/08/30 09:23:10;;;;;;;;;;;;;;;22.34;60.39;99285.94;4439524;32;20228;-90
2021/08/30 09:25:35;;;;;;;;;;;;;;;22.28;60.38;99282.03;4450792;32;19989;-91
2021/08/30 09:28:01;;;;;;;;;;;;;;;22.20;60.38;99299.53;4450625;32;20019;-90
2021/08/30 09:30:26;;;;;;;;;;;;;;;22.11;60.36;99289.75;4437537;32;19973;-90
2021/08/30 09:32:51;;;;;;;;;;;;;;;22.28;60.38;99281.19;4450253;32;20031;-90
2021/08/30 09:35:17;;;;;;;;;;;;;;;22.55;60.39;99283.19;4438264;32;20024;-90
2021/08/30 09:37:43;;;;;;;;;;;;;;;22.61;60.40;99282.66;4438589;32;19977;-90
2021/08/30 09:40:09;;;;;;;;;;;;;;;22.75;60.41;99276.97;4438823;32;19982;-91
2021/08/30 09:42:34;;;;;;;;;;;;;;;22.98;60.42;99288.19;4450476;32;19985;-89
2021/08/30 09:45:06;;;;;;;;;;;;;;;22.87;60.41;99286.47;4438834;32;19987;-89
2021/08/30 09:47:31;;;;;;;;;;;;;;;22.56;60.39;99290.19;4438657;32;20022;-90
2021/08/30 09:49:57;;;;;;;;;;;;;;;22.26;60.39;99297.22;4449817;32;19985;-89
2021/08/30 09:52:22;;;;;;;;;;;;;;;22.15;60.38;99296.47;4450139;32;20061;-90
2021/08/30 09:54:47;;;;;;;;;;;;;;;22.17;60.37;99302.47;4450287;32;20263;-90
2021/08/30 09:57:13;;;;;;;;;;;;;;;22.52;60.39;99292.28;4449581;32;19978;-90
2021/08/30 09:59:38;;;;;;;;;;;;;;;22.71;60.40;99293.25;4450197;32;20006;-86
2021/08/30 10:02:04;;;;;;;;;;;;;;;22.84;60.41;99293.88;4450092;32;19996;-86
2021/08/30 10:04:29;;;;;;;;;;;;;;;22.71;60.40;99293.25;4449832;32;20025;-87
2021/08/30 10:06:54;;;;;;;;;;;;;;;22.73;60.40;99296.66;4450218;32;19978;-87
2021/08/30 10:09:20;;;;;;;;;;;;;;;23.14;60.43;99291.09;4450166;32;20455;-87
2021/08/30 10:11:45;;;;;;;;;;;;;;;23.24;60.44;99296.44;4437239;32;20010;-87
2021/08/30 10:14:12;;;;;;;;;;;;;;;23.34;60.43;99283.97;4450137;32;20002;-86
2021/08/30 10:16:37;;;;;;;;;;;;;;;23.43;60.45;99290.25;4436947;32;20552;-87
2021/08/30 10:19:02;;;;;;;;;;;;;;;23.32;60.44;99293.06;4436896;32;20039;-87
2021/08/30 10:21:28;;;;;;;;;;;;;;;23.37;60.44;99294.31;4437048;32;20034;-87
2021/08/30 10:23:53;;;;;;;;;;;;;;;23.70;60.46;99297.53;4436971;32;20016;-87
2021/08/30 10:26:18;;;;;;;;;;;;;;;23.47;60.44;99300.47;4437057;32;19989;-87
2021/08/30 10:28:44;;;;;;;;;;;;;;;23.46;60.45;99293.47;4450008;32;20011;-87
2021/08/30 10:31:14;;;;;;;;;;;;;;;23.69;60.46;99298.50;4450115;32;19989;-87
2021/08/30 10:33:39;;;;;;;;;;;;;;;23.65;60.45;99281.16;4436769;32;20051;-87
2021/08/30 10:36:14;;;;;;;;;;;;;;;23.97;60.46;99288.75;4449973;32;19977;-87
2021/08/30 10:38:39;;;;;;;;;;;;;;;24.30;60.49;99285.56;4437025;32;19993;-87
2021/08/30 10:41:12;;;;;;;;;;;;;;;24.28;60.49;99289.31;4449804;32;19985;-87
2021/08/30 10:43:40;;;;;;;;;;;;;;;24.43;60.49;99275.41;4438033;32;20011;-87
2021/08/30 10:46:11;;;;;;;;;;;;;;;24.26;60.49;99278.84;4449491;32;20321;-87
2021/08/30 10:48:37;;;;;;;;;;;;;;;24.44;60.50;99286.91;4438294;32;20035;-87
2021/08/30 10:51:21;;;;;;;;;;;;;;;24.82;60.51;99284.97;4449701;32;20009;-87
2021/08/30 10:53:53;;;;;;;;;;;;;;;24.77;60.52;99296.06;4438295;32;20787;-87
2021/08/30 10:56:22;;;;;;;;;;;;;;;24.57;60.51;99292.69;4436827;32;19982;-88
2021/08/30 10:58:48;;;;;;;;;;;;;;;24.90;60.52;99290.38;4449622;32;19982;-87
2021/08/30 11:01:13;;;;;;;;;;;;;;;24.71;60.52;99296.69;4449322;32;19989;-88
2021/08/30 11:03:39;;;;;;;;;;;;;;;24.95;60.53;99296.94;4436592;32;19993;-87
2021/08/30 11:06:05;;;;;;;;;;;;;;;25.33;60.55;99279.84;4449616;32;20368;-87
2021/08/30 11:08:30;;;;;;;;;;;;;;;25.59;60.56;99285.19;4436248;32;19993;-87
2021/08/30 11:11:06;;;;;;;;;;;;;;;25.46;60.54;99287.41;4449327;32;20031;-88
2021/08/30 11:13:31;;;;;;;;;;;;;;;25.38;60.54;99284.69;4438850;32;20003;-87
2021/08/30 11:15:57;;;;;;;;;;;;;;;25.26;60.54;99284.09;4449121;32;24241;-87
2021/08/30 11:18:22;;;;;;;;;;;;;;;25.21;60.54;99291.69;4449842;32;19988;-88
2021/08/30 11:20:48;;;;;;;;;;;;;;;25.37;60.54;99296.34;4437511;32;25561;-87
2021/08/30 11:23:14;;;;;;;;;;;;;;;25.21;60.54;99296.19;4449759;32;19985;-88
2021/08/30 11:25:39;;;;;;;;;;;;;;;25.08;60.54;99289.44;4449416;32;19993;-87
2021/08/30 11:28:17;;;;;;;;;;;;;;;24.83;60.52;99289.31;4438065;32;19996;-89
2021/08/30 11:30:42;;;;;;;;;;;;;;;25.08;60.54;99292.09;4436147;32;20038;-88
2021/08/30 11:33:07;;;;;;;;;;;;;;;24.99;60.53;99292.16;4436657;32;20025;-88
2021/08/30 11:35:32;;;;;;;;;;;;;;;25.15;60.55;99289.66;4438185;32;19982;-87
2021/08/30 11:37:58;;;;;;;;;;;;;;;25.18;60.54;99284.03;4422236;32;872025;-86
2021/08/30 11:40:24;;;;;;;;;;;;;;;24.70;60.52;99287.03;4449571;32;20014;-87
2021/08/30 11:42:49;;;;;;;;;;;;;;;24.75;60.51;99290.06;4437773;32;20034;-87
2021/08/30 11:45:14;;;;;;;;;;;;;;;24.75;60.51;99293.56;4449050;32;19978;-87
2021/08/30 11:47:40;;;;;;;;;;;;;;;24.90;60.52;99303.69;4436436;32;19981;-86
2021/08/30 11:50:09;;;;;;;;;;;;;;;24.91;60.52;99297.38;4449194;32;20247;-87
2021/08/30 11:52:34;;;;;;;;;;;;;;;24.79;60.52;99294.94;4437836;32;19999;-87
2021/08/30 11:55:10;;;;;;;;;;;;;;;24.54;60.52;99292.16;4449135;32;19974;-90
2021/08/30 11:57:38;;;;;;;;;;;;;;;24.57;60.51;99291.84;4449159;32;19986;-90
2021/08/30 12:00:03;;;;;;;;;;;;;;;24.45;60.51;99301.88;4437420;32;20008;-90
2021/08/30 12:02:32;;;;;;;;;;;;;;;24.36;60.50;99287.63;4437588;32;20386;-88
2021/08/30 12:05:00;;;;;;;;;;;;;;;24.54;60.52;99287.66;4449075;32;19984;-89
2021/08/30 12:07:25;;;;;;;;;;;;;;;24.90;60.54;99283.25;4436110;32;20003;-89
2021/08/30 12:09:51;;;;;;;;;;;;;;;24.91;60.54;99284.06;4448913;32;19981;-89
2021/08/30 12:12:17;;;;;;;;;;;;;;;25.02;60.54;99291.84;4449002;32;20394;-89
2021/08/30 12:14:52;;;;;;;;;;;;;;;25.11;60.54;99295.44;4448704;32;20386;-89
2021/08/30 12:17:19;;;;;;;;;;;;;;;25.27;60.55;99287.59;4437310;32;19985;-88
2021/08/30 12:19:45;;;;;;;;;;;;;;;25.18;60.54;99291.19;4448822;32;20001;-90
2021/08/30 12:22:20;;;;;;;;;;;;;;;25.28;60.55;99283.94;4439008;32;20220;-88
2021/08/30 12:24:45;;;;;;;;;;;;;;;25.19;60.54;99288.34;4439144;32;19978;-89
2021/08/30 12:27:11;;;;;;;;;;;;;;;25.02;60.54;99286.53;4450709;32;20003;-88
2021/08/30 12:29:37;;;;;;;;;;;;;;;25.35;60.55;99280.50;4450885;32;20055;-89
2021/08/30 12:32:02;;;;;;;;;;;;;;;25.59;60.56;99285.19;4439124;32;20091;-89
2021/08/30 12:34:28;;;;;;;;;;;;;;;25.79;60.58;99291.19;4450913;32;20243;-89
2021/08/30 12:36:53;;;;;;;;;;;;;;;25.78;60.58;99296.66;4450768;32;19992;-89
2021/08/30 12:39:18;;;;;;;;;;;;;;;25.66;60.57;99286.22;4450966;32;19993;-89
2021/08/30 12:41:43;;;;;;;;;;;;;;;25.81;60.58;99286.53;4450686;32;19973;-88
2021/08/30 12:44:09;;;;;;;;;;;;;;;25.90;60.58;99288.25;4437915;32;20012;-89